Time;durP1;ratioP1;P1;durP2;ratioP2;P2;SDS_P1;SDS_P2;PMS_P1;PMS_P2;Temp;Humidity;BMP_temperature;BMP_pressure;BME280_temperature;BME280_humidity;BME280_pressure;Samples;Min_cycle;Max_cycle;Signal;HPM_P1;HPM_P2
2021/06/15 15:51:47;;;;;;;23.20;4.05;;;29.20;92.30;;;;;;5101995;27;20464;-57
2021/06/15 15:54:13;;;;;;;9.82;3.08;;;28.90;91.40;;;;;;5085685;28;20474;-56
2021/06/15 15:56:43;;;;;;;11.38;3.63;;;28.80;91.60;;;;;;5082535;28;20093;-52
2021/06/15 15:59:09;;;;;;;63.40;6.68;;;28.80;91.40;;;;;;5086231;28;20024;-53
2021/06/15 16:01:36;;;;;;;6.00;3.17;;;28.80;91.40;;;;;;5086869;28;20031;-57
2021/06/15 16:04:02;;;;;;;7.65;3.47;;;28.80;90.90;;;;;;5085316;28;20449;-54
2021/06/15 16:06:29;;;;;;;7.18;3.20;;;28.60;91.30;;;;;;5085726;28;20029;-55
2021/06/15 16:08:54;;;;;;;5.50;2.88;;;28.60;91.50;;;;;;5080748;28;20031;-55
2021/06/15 16:11:20;;;;;;;5.45;3.63;;;28.70;91.60;;;;;;5085099;28;20111;-56
2021/06/15 16:13:45;;;;;;;11.30;3.38;;;28.90;91.60;;;;;;5087379;28;20024;-56
2021/06/15 16:16:12;;;;;;;11.32;3.40;;;29.10;91.60;;;;;;5084854;28;20549;-56
2021/06/15 16:18:38;;;;;;;10.15;4.10;;;29.40;91.80;;;;;;5084668;28;20474;-54
2021/06/15 16:21:03;;;;;;;7.82;3.58;;;30.00;91.70;;;;;;5083322;28;20024;-58
2021/06/15 16:23:29;;;;;;;8.90;3.50;;;30.90;92.20;;;;;;5084352;28;20059;-54
2021/06/15 16:25:55;;;;;;;7.03;3.03;;;31.70;90.10;;;;;;5084880;28;20068;-51
2021/06/15 16:28:20;;;;;;;6.20;3.08;;;32.40;87.50;;;;;;5086866;28;20470;-55
2021/06/15 16:30:46;;;;;;;10.90;2.88;;;32.10;85.80;;;;;;5085866;28;20028;-57
2021/06/15 16:33:11;;;;;;;8.18;3.40;;;31.50;85.40;;;;;;5084330;28;20051;-55
2021/06/15 16:35:37;;;;;;;8.25;3.33;;;31.00;86.10;;;;;;5085951;28;20630;-55
2021/06/15 16:38:03;;;;;;;5.72;3.35;;;30.60;86.90;;;;;;5085431;28;20122;-53
2021/06/15 16:40:29;;;;;;;6.03;3.58;;;30.20;87.30;;;;;;5081772;28;20044;-53
2021/06/15 16:42:55;;;;;;;4.47;2.58;;;30.00;87.80;;;;;;5082075;28;20040;-53
2021/06/15 16:45:22;;;;;;;7.63;2.72;;;29.60;88.20;;;;;;5082733;28;20547;-53
2021/06/15 16:47:48;;;;;;;5.28;2.70;;;29.50;88.80;;;;;;5077837;28;20111;-54
2021/06/15 16:50:17;;;;;;;11.05;3.15;;;29.10;90.00;;;;;;5083498;28;20136;-55
2021/06/15 16:52:43;;;;;;;10.27;2.90;;;29.00;90.10;;;;;;5081496;28;20028;-52
2021/06/15 16:55:10;;;;;;;5.68;3.72;;;28.90;90.50;;;;;;5082441;28;20270;-51
2021/06/15 16:57:37;;;;;;;6.22;3.00;;;28.70;90.20;;;;;;5081749;28;20028;-55
2021/06/15 17:00:07;;;;;;;7.68;2.58;;;28.40;90.40;;;;;;5082402;28;20032;-53
2021/06/15 17:02:33;;;;;;;5.45;3.00;;;28.20;90.60;;;;;;5074455;28;20035;-55
2021/06/15 17:04:59;;;;;;;4.93;2.70;;;28.20;90.80;;;;;;5052282;28;20840;-54
2021/06/15 17:07:25;;;;;;;10.95;3.17;;;28.10;91.60;;;;;;5066242;28;20120;-54
2021/06/15 17:09:50;;;;;;;6.05;3.13;;;28.10;91.30;;;;;;5070130;28;20040;-56
2021/06/15 17:12:16;;;;;;;9.15;2.40;;;28.00;91.00;;;;;;5066959;28;20028;-55
2021/06/15 17:14:42;;;;;;;8.25;3.00;;;27.90;90.90;;;;;;5070785;28;20554;-52
2021/06/15 17:17:08;;;;;;;5.07;2.72;;;27.80;91.20;;;;;;5061960;28;20186;-56
2021/06/15 17:19:36;;;;;;;4.28;2.13;;;27.70;91.40;;;;;;5066889;28;20081;-54
2021/06/15 17:22:05;;;;;;;4.85;2.88;;;27.70;91.40;;;;;;5068753;28;20420;-56
2021/06/15 17:24:31;;;;;;;6.53;2.38;;;27.60;91.40;;;;;;5069935;28;20067;-54
2021/06/15 17:26:57;;;;;;;11.60;2.53;;;27.60;91.40;;;;;;5067865;28;20067;-57
2021/06/15 17:29:23;;;;;;;7.25;2.75;;;27.50;91.60;;;;;;5067610;28;20028;-57
2021/06/15 17:31:48;;;;;;;4.97;2.70;;;27.50;91.70;;;;;;5070707;28;20429;-54
2021/06/15 17:34:14;;;;;;;12.10;2.45;;;27.40;91.80;;;;;;5064325;28;20443;-53
2021/06/15 17:36:40;;;;;;;6.00;2.70;;;27.40;91.60;;;;;;5067871;28;20855;-55
2021/06/15 17:39:06;;;;;;;9.50;2.72;;;27.40;91.90;;;;;;5069590;28;20072;-54
2021/06/15 17:41:33;;;;;;;10.18;2.38;;;27.40;91.50;;;;;;5068584;28;20032;-56
2021/06/15 17:43:59;;;;;;;13.35;4.13;;;27.30;91.40;;;;;;5067110;28;20033;-53
2021/06/15 17:46:24;;;;;;;6.28;2.88;;;27.20;91.20;;;;;;5069211;28;20035;-57
2021/06/15 17:48:50;;;;;;;8.00;2.85;;;27.20;91.10;;;;;;5068940;28;20046;-56
2021/06/15 17:51:17;;;;;;;6.78;2.45;;;27.10;91.60;;;;;;5070126;28;20572;-52
2021/06/15 17:53:43;;;;;;;7.18;2.53;;;27.10;91.50;;;;;;5069770;28;20085;-52
2021/06/15 17:56:09;;;;;;;5.65;2.30;;;27.10;91.80;;;;;;5069583;28;20020;-54
2021/06/15 17:58:40;;;;;;;3.80;2.22;;;27.10;91.20;;;;;;5064063;28;20031;-56
2021/06/15 18:01:06;;;;;;;5.20;2.53;;;27.00;91.50;;;;;;5068658;28;20086;-54
2021/06/15 18:03:32;;;;;;;11.07;2.30;;;27.00;91.30;;;;;;5067471;28;20387;-54
2021/06/15 18:06:05;;;;;;;6.93;1.83;;;26.90;91.20;;;;;;5065581;28;20037;-51
2021/06/15 18:08:34;;;;;;;6.28;2.42;;;26.80;91.10;;;;;;5068224;28;20066;-55
2021/06/15 18:11:00;;;;;;;6.57;2.28;;;26.80;91.10;;;;;;5072709;28;20029;-56
2021/06/15 18:13:26;;;;;;;14.65;2.40;;;26.80;91.00;;;;;;5066388;28;20031;-58
2021/06/15 18:15:52;;;;;;;9.88;2.22;;;26.70;90.90;;;;;;5068296;28;20042;-58
2021/06/15 18:18:19;;;;;;;5.70;2.20;;;26.60;91.10;;;;;;5067779;28;20478;-53
2021/06/15 18:20:45;;;;;;;4.90;2.30;;;26.60;91.20;;;;;;5069457;28;20447;-55
2021/06/15 18:23:10;;;;;;;12.02;2.45;;;26.50;91.50;;;;;;5067500;28;20028;-55
2021/06/15 18:25:36;;;;;;;7.40;2.17;;;26.50;91.30;;;;;;5060905;28;20032;-55
2021/06/15 18:28:03;;;;;;;7.57;2.85;;;26.50;91.50;;;;;;5063620;28;20494;-59
2021/06/15 18:30:33;;;;;;;4.95;2.20;;;26.40;92.30;;;;;;5065442;28;20036;-52
2021/06/15 18:32:59;;;;;;;3.22;1.92;;;26.30;91.20;;;;;;5069085;28;20619;-54
2021/06/15 18:35:28;;;;;;;4.47;1.80;;;26.20;90.80;;;;;;5068588;28;20027;-56
2021/06/15 18:37:55;;;;;;;6.38;1.98;;;26.10;90.60;;;;;;5071152;28;20021;-53
2021/06/15 18:40:22;;;;;;;6.63;3.08;;;26.10;90.80;;;;;;5075455;28;20027;-56
2021/06/15 18:42:49;;;;;;;7.55;2.50;;;26.00;90.90;;;;;;5064013;28;20059;-55
2021/06/15 18:45:15;;;;;;;10.18;2.38;;;26.00;90.90;;;;;;5067180;28;20549;-55
2021/06/15 18:47:40;;;;;;;5.38;2.63;;;26.00;90.80;;;;;;5067373;28;20135;-55
2021/06/15 18:50:09;;;;;;;4.43;2.10;;;25.90;90.80;;;;;;5065260;28;20089;-54
2021/06/15 18:52:35;;;;;;;6.72;2.30;;;25.90;90.70;;;;;;5063481;28;20024;-55
2021/06/15 18:55:01;;;;;;;4.95;2.70;;;25.80;90.70;;;;;;5066404;28;20036;-52
2021/06/15 18:57:28;;;;;;;7.15;2.15;;;25.70;90.80;;;;;;5062138;28;20036;-55
2021/06/15 18:59:54;;;;;;;5.95;2.10;;;25.70;90.80;;;;;;5067204;28;20040;-53
2021/06/15 19:02:19;;;;;;;10.18;2.13;;;25.60;90.60;;;;;;5066940;28;20094;-55
2021/06/15 19:04:45;;;;;;;3.83;1.83;;;25.60;90.80;;;;;;5070155;28;20040;-54
2021/06/15 19:07:11;;;;;;;2.17;1.73;;;25.50;90.70;;;;;;5066366;28;20035;-54
2021/06/15 19:09:36;;;;;;;6.38;2.20;;;25.50;91.10;;;;;;5063536;28;20024;-52
2021/06/15 19:12:02;;;;;;;4.65;1.83;;;25.50;91.20;;;;;;5066333;28;20024;-58
2021/06/15 19:14:28;;;;;;;8.10;2.45;;;25.40;91.00;;;;;;5063335;28;20406;-56
2021/06/15 19:16:53;;;;;;;5.35;1.83;;;25.40;91.30;;;;;;5065391;28;20024;-54
2021/06/15 19:19:19;;;;;;;7.40;2.08;;;25.30;91.20;;;;;;5066441;28;20032;-55
2021/06/15 19:21:44;;;;;;;4.60;1.63;;;25.30;91.40;;;;;;5065175;28;20029;-57
2021/06/15 19:24:10;;;;;;;8.98;2.40;;;25.30;91.30;;;;;;5066317;28;20443;-55
2021/06/15 19:26:36;;;;;;;5.10;1.90;;;25.20;91.40;;;;;;5066373;28;20036;-56
2021/06/15 19:29:03;;;;;;;5.13;2.00;;;25.10;91.30;;;;;;5062916;28;20486;-57
2021/06/15 19:31:29;;;;;;;3.35;2.00;;;25.10;91.30;;;;;;5065102;28;20041;-54
2021/06/15 19:33:54;;;;;;;4.68;2.15;;;25.00;91.40;;;;;;5067582;28;20029;-55
2021/06/15 19:36:20;;;;;;;4.75;2.00;;;25.00;91.40;;;;;;5065632;28;20021;-55
2021/06/15 19:38:45;;;;;;;7.60;1.90;;;25.00;91.60;;;;;;5066236;28;20020;-53
2021/06/15 19:41:14;;;;;;;9.77;1.70;;;24.90;91.90;;;;;;5066270;28;20024;-53
2021/06/15 19:43:40;;;;;;;9.73;1.80;;;24.90;92.10;;;;;;5066846;28;20044;-54
2021/06/15 19:46:06;;;;;;;13.13;2.28;;;24.80;92.30;;;;;;5066563;28;20024;-54
2021/06/15 19:48:32;;;;;;;9.90;1.77;;;24.80;92.40;;;;;;5065953;28;20029;-53
2021/06/15 19:50:58;;;;;;;8.20;2.28;;;24.80;92.10;;;;;;5064185;28;20028;-55
2021/06/15 19:53:25;;;;;;;9.60;2.38;;;24.80;91.80;;;;;;5064590;28;20102;-57
2021/06/15 19:56:06;;;;;;;8.35;2.22;;;24.70;91.80;;;;;;5065887;28;20505;-49
2021/06/15 19:58:32;;;;;;;15.95;2.30;;;24.60;91.90;;;;;;5065246;28;20169;-55
2021/06/15 20:00:58;;;;;;;8.23;1.95;;;24.60;92.20;;;;;;5067276;28;20373;-54
2021/06/15 20:03:23;;;;;;;21.95;2.88;;;24.60;92.40;;;;;;5065090;28;20032;-54
2021/06/15 20:05:49;;;;;;;9.20;2.83;;;24.60;92.60;;;;;;5062925;28;20040;-54
2021/06/15 20:08:15;;;;;;;14.00;2.58;;;24.50;92.60;;;;;;5062712;28;20031;-57
2021/06/15 20:10:40;;;;;;;15.77;2.28;;;24.50;93.70;;;;;;5065694;28;20035;-54
2021/06/15 20:13:06;;;;;;;16.58;2.63;;;24.50;93.10;;;;;;5067580;28;20500;-55
2021/06/15 20:15:32;;;;;;;8.65;2.28;;;24.40;93.10;;;;;;5064493;28;20025;-55
2021/06/15 20:17:57;;;;;;;21.05;3.10;;;24.40;92.90;;;;;;5066956;28;20029;-53
2021/06/15 20:20:23;;;;;;;12.55;2.53;;;24.40;93.90;;;;;;5065585;28;20090;-57
2021/06/15 20:22:50;;;;;;;8.38;2.35;;;24.40;93.80;;;;;;5064560;28;20036;-57
2021/06/15 20:25:16;;;;;;;6.18;2.28;;;24.40;93.60;;;;;;5065057;28;20035;-57
2021/06/15 20:27:42;;;;;;;8.70;1.92;;;24.40;93.90;;;;;;5062911;28;20055;-54
2021/06/15 20:30:10;;;;;;;12.32;2.58;;;24.40;94.60;;;;;;5066915;28;20028;-58
2021/06/15 20:32:36;;;;;;;9.32;2.13;;;24.30;94.40;;;;;;5065269;28;20056;-55
2021/06/15 20:35:02;;;;;;;6.65;2.15;;;24.30;94.10;;;;;;5064778;28;20389;-54
2021/06/15 20:37:27;;;;;;;7.97;2.45;;;24.30;94.10;;;;;;5067819;28;20036;-54
2021/06/15 20:39:53;;;;;;;9.15;2.47;;;24.20;93.70;;;;;;5071160;28;20036;-56
2021/06/15 20:42:18;;;;;;;4.68;2.30;;;24.20;94.80;;;;;;5070385;28;20043;-56
2021/06/15 20:44:44;;;;;;;4.75;2.22;;;24.20;94.50;;;;;;5070061;28;20024;-55
2021/06/15 20:47:10;;;;;;;7.03;2.35;;;24.10;94.80;;;;;;5070607;28;20379;-52
2021/06/15 20:49:36;;;;;;;8.85;2.03;;;24.10;95.20;;;;;;5068337;28;20033;-50
2021/06/15 20:52:02;;;;;;;7.80;2.47;;;24.00;95.50;;;;;;5070895;28;20047;-55
2021/06/15 20:54:28;;;;;;;9.68;2.30;;;24.00;96.00;;;;;;5070831;28;20020;-52
2021/06/15 20:56:54;;;;;;;9.98;2.50;;;24.00;95.40;;;;;;5070559;28;20446;-51
2021/06/15 20:59:20;;;;;;;9.20;2.50;;;24.00;95.80;;;;;;5067886;28;20020;-52
2021/06/15 21:01:45;;;;;;;3.92;2.20;;;24.00;96.20;;;;;;5071038;28;20036;-55
2021/06/15 21:04:11;;;;;;;10.27;2.58;;;23.90;95.30;;;;;;5070208;28;20032;-56
2021/06/15 21:06:37;;;;;;;6.82;2.85;;;23.90;95.40;;;;;;5070476;28;20344;-50
2021/06/15 21:09:03;;;;;;;6.00;3.03;;;23.90;95.90;;;;;;5071436;28;20032;-55
2021/06/15 21:11:29;;;;;;;9.65;2.80;;;23.80;95.60;;;;;;5070463;28;20048;-55
2021/06/15 21:13:54;;;;;;;6.45;2.40;;;23.80;95.00;;;;;;5070618;28;20024;-55
2021/06/15 21:16:20;;;;;;;5.95;2.90;;;23.70;95.70;;;;;;5070060;28;20027;-58
2021/06/15 21:18:46;;;;;;;5.35;2.38;;;23.70;95.70;;;;;;5072303;28;20021;-54
2021/06/15 21:21:13;;;;;;;7.60;2.53;;;23.60;96.30;;;;;;5071271;28;20051;-57
2021/06/15 21:23:39;;;;;;;31.40;3.20;;;23.50;96.20;;;;;;5070343;28;20611;-54
2021/06/15 21:26:05;;;;;;;14.63;2.58;;;23.50;97.00;;;;;;5068408;28;20028;-53
2021/06/15 21:28:31;;;;;;;4.78;2.63;;;23.40;96.80;;;;;;5068074;28;20024;-56
2021/06/15 21:30:57;;;;;;;9.65;2.95;;;23.40;96.50;;;;;;5065927;28;20031;-56
2021/06/15 21:33:23;;;;;;;6.38;2.88;;;23.30;98.00;;;;;;5063879;28;20043;-60
2021/06/15 21:35:50;;;;;;;11.32;2.70;;;23.30;96.00;;;;;;5068052;28;20029;-59
2021/06/15 21:38:15;;;;;;;4.45;2.58;;;23.30;96.30;;;;;;5066874;28;20017;-57
2021/06/15 21:40:41;;;;;;;6.28;3.17;;;23.10;95.90;;;;;;5069341;28;20024;-57
2021/06/15 21:43:07;;;;;;;6.25;2.40;;;23.10;97.20;;;;;;5066430;28;20047;-54
2021/06/15 21:45:32;;;;;;;8.45;2.88;;;23.00;97.20;;;;;;5068052;28;20032;-54
2021/06/15 21:47:58;;;;;;;5.45;2.63;;;23.00;96.50;;;;;;5066469;28;20024;-59
2021/06/15 21:50:24;;;;;;;12.25;2.80;;;23.00;96.80;;;;;;5071825;28;20035;-58
2021/06/15 21:52:50;;;;;;;7.95;2.70;;;23.00;96.60;;;;;;5066460;28;20027;-60
2021/06/15 21:55:16;;;;;;;8.65;2.17;;;23.00;96.80;;;;;;5067219;28;20028;-59
2021/06/15 21:57:42;;;;;;;8.15;2.53;;;22.80;98.60;;;;;;5067206;28;20028;-60
2021/06/15 22:00:13;;;;;;;9.40;2.42;;;22.80;97.90;;;;;;5063623;28;20024;-60
2021/06/15 22:02:39;;;;;;;5.30;2.83;;;22.70;98.10;;;;;;5068261;28;20498;-60
2021/06/15 22:05:05;;;;;;;4.15;2.13;;;22.70;99.10;;;;;;5066405;28;20095;-59
2021/06/15 22:07:33;;;;;;;6.55;2.60;;;22.60;99.90;;;;;;5067664;28;20016;-60
2021/06/15 22:09:58;;;;;;;5.97;2.75;;;22.60;98.60;;;;;;5063444;28;20603;-58
2021/06/15 22:12:24;;;;;;;6.85;2.45;;;22.60;99.30;;;;;;5059827;28;20114;-58
2021/06/15 22:14:50;;;;;;;5.35;2.70;;;22.50;99.50;;;;;;5067093;28;20383;-60
2021/06/15 22:17:15;;;;;;;5.07;3.03;;;22.50;98.80;;;;;;5063060;28;20032;-60
2021/06/15 22:19:41;;;;;;;7.88;2.65;;;22.50;98.70;;;;;;5066995;28;20103;-59
2021/06/15 22:22:07;;;;;;;4.35;2.47;;;22.50;98.90;;;;;;5066770;28;20021;-56
2021/06/15 22:24:34;;;;;;;7.03;2.42;;;22.50;99.00;;;;;;5069193;28;20427;-55
2021/06/15 22:27:00;;;;;;;6.70;3.22;;;22.40;98.80;;;;;;5068295;28;20028;-59
2021/06/15 22:29:25;;;;;;;9.45;3.13;;;22.40;99.30;;;;;;5068578;28;20093;-58
2021/06/15 22:31:52;;;;;;;7.32;2.80;;;22.40;99.40;;;;;;5068387;28;20052;-59
2021/06/15 22:34:17;;;;;;;4.35;2.65;;;22.30;99.90;;;;;;5069305;28;20028;-56
2021/06/15 22:36:44;;;;;;;3.28;2.60;;;22.30;99.90;;;;;;5067244;28;20061;-58
2021/06/15 22:39:09;;;;;;;4.95;2.85;;;22.20;99.90;;;;;;5068239;28;20592;-57
2021/06/15 22:41:36;;;;;;;3.70;2.88;;;22.20;99.90;;;;;;5070069;28;20032;-57
2021/06/15 22:44:03;;;;;;;13.88;3.80;;;22.10;99.90;;;;;;5069662;28;20048;-58
2021/06/15 22:46:28;;;;;;;4.25;2.45;;;22.00;99.90;;;;;;5067596;28;20036;-56
2021/06/15 22:48:54;;;;;;;7.28;2.80;;;22.00;99.90;;;;;;5068555;28;20021;-58
2021/06/15 22:51:20;;;;;;;8.13;3.00;;;22.00;99.90;;;;;;5070223;28;20025;-54
2021/06/15 22:53:46;;;;;;;8.70;3.13;;;22.00;99.90;;;;;;5065833;28;20043;-57
2021/06/15 22:56:11;;;;;;;4.63;2.60;;;21.90;99.90;;;;;;5063323;28;20390;-55
2021/06/15 22:58:37;;;;;;;7.38;3.00;;;21.90;99.90;;;;;;5056616;28;20358;-59
2021/06/15 23:01:03;;;;;;;4.22;2.45;;;21.90;99.90;;;;;;5057763;28;20029;-56
2021/06/15 23:03:28;;;;;;;6.95;3.20;;;21.80;99.90;;;;;;5059514;28;20021;-57
2021/06/15 23:05:54;;;;;;;5.78;3.08;;;21.80;99.90;;;;;;5060493;28;20178;-58
2021/06/15 23:08:19;;;;;;;5.65;2.58;;;21.70;99.90;;;;;;5068845;28;20100;-57
2021/06/15 23:10:45;;;;;;;10.50;2.97;;;21.60;99.90;;;;;;5069090;28;20024;-57
2021/06/15 23:13:11;;;;;;;5.65;2.72;;;21.60;99.90;;;;;;5068929;28;20035;-58
2021/06/15 23:15:38;;;;;;;5.22;2.90;;;21.60;99.90;;;;;;5068740;28;20130;-55
2021/06/15 23:18:04;;;;;;;5.00;3.15;;;21.50;99.90;;;;;;5068929;28;20402;-58
2021/06/15 23:20:30;;;;;;;8.85;3.13;;;21.60;99.90;;;;;;5068945;28;20107;-54
2021/06/15 23:22:56;;;;;;;8.93;2.75;;;21.50;99.90;;;;;;5068507;28;20112;-54
2021/06/15 23:25:25;;;;;;;6.45;2.67;;;21.50;99.90;;;;;;5064526;28;20054;-56
2021/06/15 23:27:50;;;;;;;7.68;2.50;;;21.50;99.90;;;;;;5066872;28;20481;-60
2021/06/15 23:30:17;;;;;;;5.95;2.95;;;21.40;99.90;;;;;;5068922;28;20037;-58
2021/06/15 23:32:43;;;;;;;5.13;2.63;;;21.30;99.90;;;;;;5068922;28;20082;-58
2021/06/15 23:35:09;;;;;;;8.48;3.17;;;21.20;99.90;;;;;;5068657;28;20025;-58
2021/06/15 23:37:35;;;;;;;8.48;3.30;;;21.00;99.90;;;;;;5066962;28;20525;-57
2021/06/15 23:40:01;;;;;;;7.88;3.22;;;20.80;99.90;;;;;;5069427;28;20036;-57
2021/06/15 23:42:26;;;;;;;10.20;3.35;;;20.70;99.90;;;;;;5068413;28;20116;-53
2021/06/15 23:44:52;;;;;;;10.35;3.45;;;20.50;99.90;;;;;;5067459;28;20111;-58
2021/06/15 23:47:18;;;;;;;4.47;3.00;;;20.40;99.90;;;;;;5065438;28;20127;-58
2021/06/15 23:49:44;;;;;;;8.60;3.83;;;20.30;99.90;;;;;;5068091;28;20060;-58
2021/06/15 23:52:09;;;;;;;8.32;3.53;;;20.20;99.90;;;;;;5068901;28;20028;-55
2021/06/15 23:54:35;;;;;;;7.57;3.17;;;20.10;99.90;;;;;;5068842;28;20025;-55
2021/06/15 23:57:00;;;;;;;7.68;3.55;;;20.10;99.90;;;;;;5068773;28;20120;-55
2021/06/15 23:59:26;;;;;;;9.85;3.33;;;20.00;99.90;;;;;;5068775;28;20029;-58
